Terminal Aerodrome Forecast
Issued by NWS Quad Cities IA IL

Home | Current Version | Previous Version | Text Only | Print | Product List | Glossary On
Versions: 1 2 3 4 5 6 7 8 9 10 11 12 13 14 15 16 17 18 19 20 21 22 23 24 25
000
FTUS43 KDVN 251100
TAFMLI
TAF
KMLI 251120Z 2512/2612 28012KT 5SM BR OVC006
     FM251500 28013KT 4SM BR OVC011
     FM252100 28013G22KT P6SM BKN020
     FM260000 31010KT P6SM BKN050=

USA.gov is the U.S. government's official web portal to all federal, state and local government web resources and services.